Time;durP1;ratioP1;P1;durP2;ratioP2;P2;SDS_P1;SDS_P2;PMS_P1;PMS_P2;Temp;Humidity;BMP_temperature;BMP_pressure;BME280_temperature;BME280_humidity;BME280_pressure;Samples;Min_cycle;Max_cycle;Signal;HPM_P1;HPM_P2
2023/08/04 00:01:23;;;;;;;9.32;4.10;;;17.90;99.90;;;;;;5074692;28;20381;-64
2023/08/04 00:03:49;;;;;;;10.75;4.47;;;17.90;99.90;;;;;;5074469;28;20025;-64
2023/08/04 00:06:14;;;;;;;10.70;4.57;;;17.80;99.90;;;;;;5074585;28;20024;-65
2023/08/04 00:08:40;;;;;;;10.40;4.82;;;17.90;99.90;;;;;;5074621;28;20496;-64
2023/08/04 00:11:05;;;;;;;10.68;5.00;;;17.80;99.90;;;;;;5074475;28;20068;-65
2023/08/04 00:13:31;;;;;;;8.20;4.63;;;17.80;99.90;;;;;;5074608;28;20023;-64
2023/08/04 00:16:07;;;;;;;11.80;5.10;;;17.80;99.90;;;;;;5074325;28;20099;-64
2023/08/04 00:18:33;;;;;;;12.63;5.03;;;17.80;99.90;;;;;;5074173;28;20465;-64
2023/08/04 00:20:59;;;;;;;6.85;4.85;;;17.80;99.90;;;;;;5074320;28;20035;-64
2023/08/04 00:23:24;;;;;;;8.57;4.97;;;17.70;99.90;;;;;;5074296;28;20069;-64
2023/08/04 00:25:50;;;;;;;12.70;5.25;;;17.70;99.90;;;;;;5074216;28;20056;-64
2023/08/04 00:28:15;;;;;;;10.77;6.05;;;17.70;99.90;;;;;;5074177;28;20469;-64
2023/08/04 00:30:41;;;;;;;11.52;5.43;;;17.70;99.90;;;;;;5074204;28;20044;-64
2023/08/04 00:33:07;;;;;;;11.30;5.15;;;17.80;99.90;;;;;;5073868;28;20016;-64
2023/08/04 00:35:33;;;;;;;10.93;5.38;;;17.70;99.90;;;;;;5074106;28;20588;-64
2023/08/04 00:37:59;;;;;;;10.82;4.75;;;17.80;99.90;;;;;;5073934;28;20104;-65
2023/08/04 00:40:24;;;;;;;11.25;5.60;;;17.70;99.90;;;;;;5074212;28;20031;-64
2023/08/04 00:42:50;;;;;;;10.40;5.80;;;17.70;99.90;;;;;;5073691;28;20048;-64
2023/08/04 00:45:15;;;;;;;13.80;5.95;;;17.70;99.90;;;;;;5073849;28;20032;-65
2023/08/04 00:47:41;;;;;;;13.95;5.68;;;17.60;99.90;;;;;;5073479;28;20714;-64
2023/08/04 00:50:08;;;;;;;9.18;5.75;;;17.70;99.90;;;;;;5073631;28;20040;-64
2023/08/04 00:52:35;;;;;;;11.25;5.75;;;17.70;99.90;;;;;;5073415;28;20102;-64
2023/08/04 00:55:01;;;;;;;10.38;6.05;;;17.70;99.90;;;;;;5073001;28;20033;-64
2023/08/04 00:57:26;;;;;;;10.75;5.60;;;17.60;99.90;;;;;;5073793;28;20023;-64
2023/08/04 00:59:54;;;;;;;9.50;6.28;;;17.60;99.90;;;;;;5073519;28;20033;-64
2023/08/04 01:02:20;;;;;;;8.75;5.72;;;17.60;99.90;;;;;;5073189;28;20066;-64
2023/08/04 01:04:46;;;;;;;11.35;6.65;;;17.60;99.90;;;;;;5073322;28;20024;-65
2023/08/04 01:07:22;;;;;;;13.88;6.40;;;17.60;99.90;;;;;;5073403;28;20111;-64
2023/08/04 01:10:12;;;;;;;11.27;6.82;;;17.60;99.90;;;;;;5073595;28;20111;-65
2023/08/04 01:12:37;;;;;;;12.73;6.82;;;17.60;99.90;;;;;;5073170;28;20472;-64
2023/08/04 01:15:04;;;;;;;10.57;6.82;;;17.60;99.90;;;;;;5073542;28;20074;-64
2023/08/04 01:17:31;;;;;;;11.68;6.72;;;17.50;99.90;;;;;;5072931;28;20428;-64
2023/08/04 01:19:58;;;;;;;13.32;7.35;;;17.60;99.90;;;;;;5073440;28;20421;-64
2023/08/04 01:22:25;;;;;;;14.07;6.93;;;17.60;99.90;;;;;;5073330;28;20104;-64
2023/08/04 01:24:52;;;;;;;11.95;7.53;;;17.60;99.90;;;;;;5073217;28;20025;-64
2023/08/04 01:27:40;;;;;;;10.93;7.45;;;17.60;99.90;;;;;;5073269;28;20020;-64
2023/08/04 01:30:10;;;;;;;13.85;8.00;;;17.60;99.90;;;;;;5073020;28;20033;-64
2023/08/04 01:32:36;;;;;;;13.75;7.30;;;17.60;99.90;;;;;;5073078;28;20035;-64
2023/08/04 01:35:04;;;;;;;12.75;7.72;;;17.50;99.90;;;;;;5073209;28;20033;-65
2023/08/04 01:37:30;;;;;;;12.23;7.75;;;17.60;99.90;;;;;;5073122;28;20021;-64
2023/08/04 01:39:55;;;;;;;11.43;7.50;;;17.50;99.90;;;;;;5073234;28;20162;-65
2023/08/04 01:42:21;;;;;;;12.20;7.55;;;17.50;99.90;;;;;;5073284;28;20050;-64
2023/08/04 01:44:47;;;;;;;14.73;8.35;;;17.60;99.90;;;;;;5072613;28;20410;-64
2023/08/04 01:47:12;;;;;;;9.40;7.05;;;17.50;99.90;;;;;;5072852;28;20489;-64
2023/08/04 01:49:38;;;;;;;13.73;7.97;;;17.50;99.90;;;;;;5071955;28;20055;-65
2023/08/04 01:52:04;;;;;;;14.10;7.60;;;17.50;99.90;;;;;;5072227;28;20473;-64
2023/08/04 01:54:29;;;;;;;14.63;8.48;;;17.50;99.90;;;;;;5072148;28;20028;-65
2023/08/04 01:56:55;;;;;;;11.77;7.63;;;17.50;99.90;;;;;;5072097;28;20017;-64
2023/08/04 01:59:20;;;;;;;11.82;7.35;;;17.50;99.90;;;;;;5071522;28;20039;-64
2023/08/04 02:01:46;;;;;;;11.18;7.38;;;17.50;99.90;;;;;;5072064;28;20029;-65
2023/08/04 02:04:12;;;;;;;11.40;7.80;;;17.40;99.90;;;;;;5071942;28;20028;-64
2023/08/04 02:06:37;;;;;;;17.80;7.55;;;17.40;99.90;;;;;;5071996;28;20500;-64
2023/08/04 02:09:03;;;;;;;14.45;7.00;;;17.40;99.90;;;;;;5075250;28;20047;-64
2023/08/04 02:11:30;;;;;;;11.85;7.40;;;17.50;99.90;;;;;;5075540;28;20150;-64
2023/08/04 02:13:56;;;;;;;11.95;7.90;;;17.50;99.90;;;;;;5075084;28;20024;-65
2023/08/04 02:16:22;;;;;;;9.25;6.93;;;17.40;99.90;;;;;;5075722;28;20358;-64
2023/08/04 02:18:47;;;;;;;11.98;7.50;;;17.40;99.90;;;;;;5075491;28;20043;-64
2023/08/04 02:21:13;;;;;;;11.68;6.70;;;17.40;99.90;;;;;;5075464;28;20054;-65
2023/08/04 02:23:39;;;;;;;14.15;7.75;;;17.40;99.90;;;;;;5075188;28;20385;-65
2023/08/04 02:26:04;;;;;;;11.40;7.25;;;17.40;99.90;;;;;;5075460;28;20024;-64
2023/08/04 02:28:30;;;;;;;10.52;6.80;;;17.40;99.90;;;;;;5090635;28;20024;-64
2023/08/04 02:30:58;;;;;;;14.48;6.72;;;17.40;99.90;;;;;;5075015;28;20500;-64
2023/08/04 02:33:23;;;;;;;12.60;7.00;;;17.40;99.90;;;;;;5075448;28;20046;-64
2023/08/04 02:35:49;;;;;;;12.23;7.40;;;17.40;99.90;;;;;;5074963;28;20043;-64
2023/08/04 02:38:15;;;;;;;11.25;6.20;;;17.40;99.90;;;;;;5075209;28;20035;-64
2023/08/04 02:40:40;;;;;;;13.43;7.32;;;17.40;99.90;;;;;;5075132;28;20058;-64
2023/08/04 02:43:07;;;;;;;11.30;6.53;;;17.30;99.90;;;;;;5074900;28;20032;-64
2023/08/04 02:45:32;;;;;;;9.60;6.25;;;17.40;99.90;;;;;;5074962;28;20028;-64
2023/08/04 02:47:58;;;;;;;8.73;6.43;;;17.40;99.90;;;;;;5036731;28;1102012;-64
2023/08/04 02:50:23;;;;;;;12.32;6.85;;;17.40;99.90;;;;;;5076058;28;20032;-64
2023/08/04 02:52:49;;;;;;;9.18;6.07;;;17.30;99.90;;;;;;5076198;28;20020;-64
2023/08/04 02:55:15;;;;;;;11.20;5.70;;;17.30;99.90;;;;;;5076049;28;20465;-64
2023/08/04 02:57:40;;;;;;;10.38;5.90;;;17.40;99.90;;;;;;5075724;28;20043;-64
2023/08/04 03:00:07;;;;;;;12.57;6.30;;;17.30;99.90;;;;;;5076066;28;20029;-64
2023/08/04 03:02:32;;;;;;;10.07;5.63;;;17.30;99.90;;;;;;5076094;28;20020;-65
2023/08/04 03:04:58;;;;;;;11.88;5.90;;;17.30;99.90;;;;;;5075709;28;20031;-64
2023/08/04 03:07:24;;;;;;;8.98;5.78;;;17.30;99.90;;;;;;5076047;28;20020;-64
2023/08/04 03:09:49;;;;;;;10.00;6.13;;;17.30;99.90;;;;;;5075454;28;20013;-65
2023/08/04 03:12:15;;;;;;;10.88;5.32;;;17.30;99.90;;;;;;5075466;28;20032;-64
2023/08/04 03:14:41;;;;;;;8.02;5.53;;;17.30;99.90;;;;;;5075670;28;20024;-64
2023/08/04 03:17:06;;;;;;;10.85;5.18;;;17.30;99.90;;;;;;5075662;28;20056;-64
2023/08/04 03:19:32;;;;;;;7.20;5.57;;;17.30;99.90;;;;;;5090908;28;20033;-64
2023/08/04 03:21:57;;;;;;;7.93;5.28;;;17.30;99.90;;;;;;5075492;28;20021;-64
2023/08/04 03:24:23;;;;;;;10.45;5.47;;;17.30;99.90;;;;;;5075695;28;20025;-64
2023/08/04 03:26:48;;;;;;;10.30;5.15;;;17.30;99.90;;;;;;5075035;28;20035;-64
2023/08/04 03:29:14;;;;;;;8.07;5.78;;;17.30;99.90;;;;;;5075381;28;20525;-64
2023/08/04 03:31:40;;;;;;;9.95;5.63;;;17.30;99.90;;;;;;5075456;28;20181;-64
2023/08/04 03:34:05;;;;;;;8.07;5.57;;;17.30;99.90;;;;;;5075378;28;20025;-64
2023/08/04 03:36:31;;;;;;;10.48;5.88;;;17.30;99.90;;;;;;5075349;28;20397;-64
2023/08/04 03:38:56;;;;;;;9.90;5.63;;;17.30;99.90;;;;;;5075132;28;20143;-64
2023/08/04 03:41:22;;;;;;;11.88;6.53;;;17.20;99.90;;;;;;5074817;28;20033;-64
2023/08/04 03:43:47;;;;;;;8.48;6.07;;;17.30;99.90;;;;;;5075244;28;20454;-64
2023/08/04 03:46:13;;;;;;;11.77;6.18;;;17.30;99.90;;;;;;5075076;28;20027;-63
2023/08/04 03:48:38;;;;;;;11.30;6.40;;;17.30;99.90;;;;;;5074827;28;20098;-64
2023/08/04 03:51:04;;;;;;;8.15;5.30;;;17.20;99.90;;;;;;5074832;28;20119;-64
2023/08/04 03:53:30;;;;;;;10.70;5.93;;;17.20;99.90;;;;;;5075238;28;20024;-64
2023/08/04 03:55:55;;;;;;;10.20;5.82;;;17.20;99.90;;;;;;5074358;28;20445;-64
2023/08/04 03:58:21;;;;;;;15.38;5.72;;;17.30;99.90;;;;;;5075041;28;20048;-64
2023/08/04 04:00:46;;;;;;;9.05;5.82;;;17.30;99.90;;;;;;5074583;28;20016;-63
2023/08/04 04:03:12;;;;;;;8.43;5.93;;;17.30;99.90;;;;;;5075003;28;20048;-64
2023/08/04 04:05:38;;;;;;;9.23;6.18;;;17.20;99.90;;;;;;5074794;28;20127;-63
2023/08/04 04:08:04;;;;;;;9.70;6.90;;;17.20;99.90;;;;;;5074679;28;20158;-64
2023/08/04 04:10:29;;;;;;;10.23;6.82;;;17.20;99.90;;;;;;5074544;28;20123;-65
2023/08/04 04:12:55;;;;;;;9.23;6.43;;;17.20;99.90;;;;;;5074423;28;20027;-64
2023/08/04 04:15:21;;;;;;;10.57;6.07;;;17.20;99.90;;;;;;5074520;28;20024;-64
2023/08/04 04:17:46;;;;;;;11.70;6.72;;;17.20;99.90;;;;;;5089830;28;20048;-64
2023/08/04 04:20:12;;;;;;;12.57;7.25;;;17.20;99.90;;;;;;5074382;28;20056;-65
2023/08/04 04:22:38;;;;;;;11.10;6.80;;;17.20;99.90;;;;;;5074358;28;20043;-64
2023/08/04 04:25:04;;;;;;;13.32;7.50;;;17.20;99.90;;;;;;5073978;28;20466;-64
2023/08/04 04:27:30;;;;;;;10.55;6.57;;;17.10;99.90;;;;;;5074329;28;20023;-65
2023/08/04 04:29:56;;;;;;;14.50;6.95;;;17.10;99.90;;;;;;5073290;28;20115;-65
2023/08/04 04:32:21;;;;;;;10.52;7.07;;;17.10;99.90;;;;;;5074118;28;20021;-64
2023/08/04 04:34:47;;;;;;;11.70;7.75;;;17.20;99.90;;;;;;5074245;28;20021;-64
2023/08/04 04:37:13;;;;;;;10.38;6.88;;;17.30;99.90;;;;;;5074146;28;20078;-64
2023/08/04 04:39:38;;;;;;;11.15;8.05;;;17.30;99.90;;;;;;5072516;28;20016;-64
2023/08/04 04:42:05;;;;;;;10.18;7.72;;;17.40;99.90;;;;;;5077194;28;20030;-64
2023/08/04 04:44:31;;;;;;;15.55;8.48;;;17.40;99.90;;;;;;5077559;28;20099;-64
2023/08/04 04:46:56;;;;;;;11.27;7.57;;;17.30;99.90;;;;;;5093982;28;20059;-64
2023/08/04 04:49:22;;;;;;;10.13;8.68;;;17.30;99.90;;;;;;5090863;28;20044;-64
2023/08/04 04:51:47;;;;;;;12.02;8.52;;;17.40;99.90;;;;;;5072243;28;20065;-64
2023/08/04 04:54:13;;;;;;;14.18;8.60;;;17.40;99.90;;;;;;5073186;28;20162;-64
2023/08/04 04:56:39;;;;;;;12.85;9.02;;;17.40;99.90;;;;;;5085858;28;20385;-64
2023/08/04 04:59:04;;;;;;;13.68;8.57;;;17.40;99.90;;;;;;5078449;28;20048;-64
2023/08/04 05:01:30;;;;;;;12.88;8.45;;;17.40;99.90;;;;;;5073142;28;20028;-65
2023/08/04 05:03:56;;;;;;;10.55;7.93;;;17.40;99.90;;;;;;5072833;28;20455;-64
2023/08/04 05:06:21;;;;;;;11.63;8.25;;;17.40;99.90;;;;;;5071884;28;20093;-65
2023/08/04 05:08:47;;;;;;;10.65;7.78;;;17.50;99.90;;;;;;5072750;28;20115;-64
2023/08/04 05:11:12;;;;;;;12.65;8.90;;;17.50;99.90;;;;;;5073100;28;20044;-64
2023/08/04 05:13:41;;;;;;;11.40;8.02;;;17.50;99.90;;;;;;5073015;28;20043;-64
2023/08/04 05:16:07;;;;;;;13.20;7.93;;;17.50;99.90;;;;;;5072649;28;20016;-65
2023/08/04 05:18:33;;;;;;;11.73;7.35;;;17.50;99.90;;;;;;5073174;28;20390;-64
2023/08/04 05:20:58;;;;;;;14.20;8.02;;;17.50;99.90;;;;;;5070482;28;20078;-64
2023/08/04 05:23:24;;;;;;;11.38;7.57;;;17.50;99.90;;;;;;5071962;28;20028;-64
2023/08/04 05:25:50;;;;;;;13.65;7.25;;;17.50;99.90;;;;;;5078604;28;20067;-64
2023/08/04 05:28:19;;;;;;;12.98;6.80;;;17.50;99.90;;;;;;5079155;28;20027;-63
2023/08/04 05:30:44;;;;;;;13.38;6.88;;;17.60;99.90;;;;;;5085706;28;20068;-64
2023/08/04 05:33:10;;;;;;;11.23;6.32;;;17.60;99.90;;;;;;5093419;28;20019;-64
2023/08/04 05:35:37;;;;;;;11.07;6.60;;;17.60;99.90;;;;;;5084414;28;20461;-67
2023/08/04 05:38:03;;;;;;;9.30;5.78;;;17.60;99.90;;;;;;5072763;28;20476;-64
2023/08/04 05:40:29;;;;;;;11.32;5.90;;;17.60;99.90;;;;;;5086301;28;20060;-65
2023/08/04 05:42:54;;;;;;;8.73;6.20;;;17.60;99.90;;;;;;5079272;28;20399;-64
2023/08/04 05:45:20;;;;;;;9.70;6.57;;;17.60;99.90;;;;;;5070158;28;20025;-64
2023/08/04 05:47:45;;;;;;;8.85;5.85;;;17.70;99.90;;;;;;5070432;28;20032;-64
2023/08/04 05:50:11;;;;;;;14.75;5.28;;;17.70;99.90;;;;;;5069912;28;20521;-67
2023/08/04 05:52:37;;;;;;;8.77;3.72;;;17.70;99.90;;;;;;5067655;28;20505;-66
2023/08/04 05:55:03;;;;;;;9.15;4.28;;;17.70;99.90;;;;;;5067867;28;20043;-66
2023/08/04 05:57:28;;;;;;;6.05;4.38;;;17.70;99.90;;;;;;5057892;28;20017;-66
2023/08/04 05:59:54;;;;;;;6.95;3.55;;;17.70;99.90;;;;;;5064038;28;20033;-66
2023/08/04 06:02:19;;;;;;;6.43;3.65;;;17.70;99.90;;;;;;5068193;28;20108;-66
2023/08/04 06:04:45;;;;;;;5.38;3.50;;;17.70;99.90;;;;;;5059570;28;20032;-66
2023/08/04 06:07:10;;;;;;;7.45;4.00;;;17.70;99.90;;;;;;5061849;28;20412;-66
2023/08/04 06:09:36;;;;;;;5.65;4.00;;;17.70;99.90;;;;;;5069499;28;20040;-66
2023/08/04 06:12:02;;;;;;;7.15;4.55;;;17.70;99.90;;;;;;5064048;28;20028;-66
2023/08/04 06:14:27;;;;;;;4.57;2.97;;;17.70;99.90;;;;;;5054820;28;20537;-67
2023/08/04 06:16:53;;;;;;;4.47;2.65;;;17.80;99.90;;;;;;5060431;28;20017;-68
2023/08/04 06:19:18;;;;;;;7.80;3.92;;;17.80;99.90;;;;;;5062589;28;20445;-67
2023/08/04 06:21:44;;;;;;;8.43;3.40;;;17.80;99.90;;;;;;5064155;28;20362;-66
2023/08/04 06:24:10;;;;;;;8.27;3.05;;;17.80;99.90;;;;;;5058969;28;20104;-66
2023/08/04 06:26:36;;;;;;;7.07;2.85;;;17.80;99.90;;;;;;5052114;28;20013;-66
2023/08/04 06:29:02;;;;;;;3.47;2.50;;;17.80;99.90;;;;;;5064919;28;20025;-66
2023/08/04 06:31:27;;;;;;;5.05;3.22;;;17.80;99.90;;;;;;5070690;28;20500;-66
2023/08/04 06:33:53;;;;;;;6.10;3.72;;;17.80;99.90;;;;;;5070891;28;20112;-66
2023/08/04 06:36:19;;;;;;;8.25;4.30;;;17.90;99.90;;;;;;5071527;28;20021;-66
2023/08/04 06:38:44;;;;;;;7.28;4.22;;;17.80;99.90;;;;;;5072088;28;20059;-66
2023/08/04 06:41:10;;;;;;;7.75;3.53;;;17.90;99.90;;;;;;5071657;28;20024;-66
2023/08/04 06:43:36;;;;;;;5.57;3.55;;;17.90;99.90;;;;;;5071789;28;20052;-66
2023/08/04 06:46:01;;;;;;;3.90;3.28;;;17.90;99.90;;;;;;5069106;28;20040;-65
2023/08/04 06:48:27;;;;;;;4.28;2.47;;;17.90;99.90;;;;;;5069962;28;20060;-66
2023/08/04 06:50:53;;;;;;;3.85;2.75;;;17.90;99.90;;;;;;5069071;28;20055;-66
2023/08/04 06:53:19;;;;;;;4.18;3.05;;;18.00;99.90;;;;;;5071851;28;20028;-64
2023/08/04 06:55:44;;;;;;;4.88;3.08;;;18.00;99.90;;;;;;5068520;28;20031;-64
2023/08/04 06:58:11;;;;;;;7.30;3.72;;;18.00;99.90;;;;;;5072756;28;20101;-65
2023/08/04 07:00:37;;;;;;;7.28;4.07;;;18.00;99.90;;;;;;5069908;28;20056;-64
2023/08/04 07:03:02;;;;;;;5.82;3.00;;;18.00;99.90;;;;;;5073675;28;20086;-66
2023/08/04 07:05:28;;;;;;;5.22;3.17;;;17.90;99.90;;;;;;5070243;28;20028;-66
2023/08/04 07:07:54;;;;;;;3.80;2.40;;;18.00;99.90;;;;;;5075124;28;20564;-66
2023/08/04 07:10:20;;;;;;;4.03;2.55;;;18.00;99.90;;;;;;5077112;28;20037;-66
2023/08/04 07:12:45;;;;;;;3.15;2.25;;;18.00;99.90;;;;;;5076330;28;20151;-65
2023/08/04 07:15:11;;;;;;;3.50;2.47;;;18.00;99.90;;;;;;5074902;28;20108;-65
2023/08/04 07:17:37;;;;;;;3.35;2.70;;;18.00;99.90;;;;;;5072911;28;20027;-66
2023/08/04 07:20:03;;;;;;;3.90;2.50;;;18.00;99.90;;;;;;5072881;28;20052;-66
2023/08/04 07:22:29;;;;;;;3.40;2.47;;;18.00;99.90;;;;;;5072467;28;20035;-65
2023/08/04 07:24:56;;;;;;;5.35;3.00;;;18.10;99.90;;;;;;5068610;28;20025;-65
2023/08/04 07:27:22;;;;;;;3.42;2.22;;;18.10;99.90;;;;;;5074484;28;20078;-67
2023/08/04 07:29:48;;;;;;;2.90;2.60;;;18.10;99.90;;;;;;5072829;28;20028;-64
2023/08/04 07:32:14;;;;;;;3.28;2.35;;;18.10;99.90;;;;;;5071867;28;20033;-64
2023/08/04 07:34:40;;;;;;;3.13;2.13;;;18.20;99.90;;;;;;5073092;28;20089;-66
2023/08/04 07:37:05;;;;;;;3.55;2.75;;;18.20;99.90;;;;;;5075876;28;20040;-66
2023/08/04 07:39:31;;;;;;;4.15;2.88;;;18.20;99.90;;;;;;5080171;28;20016;-66
2023/08/04 07:41:57;;;;;;;4.00;2.92;;;18.20;99.90;;;;;;5073551;28;20077;-66
2023/08/04 07:44:23;;;;;;;4.93;2.47;;;18.20;99.90;;;;;;5069596;28;20401;-67
2023/08/04 07:46:48;;;;;;;4.55;3.13;;;18.20;99.90;;;;;;5071510;28;20036;-67
2023/08/04 07:49:14;;;;;;;5.43;2.97;;;18.30;99.90;;;;;;5066596;28;20129;-66
2023/08/04 07:51:40;;;;;;;4.53;3.33;;;18.30;99.90;;;;;;5073087;28;20037;-66
2023/08/04 07:54:06;;;;;;;4.70;2.80;;;18.30;99.90;;;;;;5073133;28;20488;-66
2023/08/04 07:56:32;;;;;;;5.35;2.88;;;18.30;99.90;;;;;;5080757;28;20099;-67
2023/08/04 07:58:58;;;;;;;3.47;2.90;;;18.30;99.90;;;;;;5073327;28;20044;-67
2023/08/04 08:01:23;;;;;;;4.05;2.65;;;18.40;99.90;;;;;;5080588;28;20409;-66
2023/08/04 08:03:49;;;;;;;6.40;2.53;;;18.40;99.90;;;;;;5068370;28;20133;-67
2023/08/04 08:06:14;;;;;;;6.88;3.08;;;18.40;99.90;;;;;;5068446;28;20039;-66
2023/08/04 08:08:40;;;;;;;4.50;2.80;;;18.40;99.90;;;;;;5075367;28;20033;-66
2023/08/04 08:11:09;;;;;;;5.72;2.88;;;18.40;99.90;;;;;;5069893;28;20500;-67
2023/08/04 08:13:35;;;;;;;5.40;3.10;;;18.50;99.90;;;;;;5068539;28;20531;-66
2023/08/04 08:16:12;;;;;;;5.50;2.47;;;18.50;99.90;;;;;;5052179;28;20021;-66
2023/08/04 08:18:38;;;;;;;8.02;3.15;;;18.50;99.90;;;;;;5053477;28;20036;-67
2023/08/04 08:21:06;;;;;;;4.10;2.60;;;18.50;99.90;;;;;;5054096;28;20022;-67
2023/08/04 08:23:31;;;;;;;4.00;2.28;;;18.50;99.90;;;;;;5054115;28;20025;-66
2023/08/04 08:25:57;;;;;;;4.53;2.40;;;18.60;99.90;;;;;;5054441;28;20025;-66
2023/08/04 08:28:22;;;;;;;6.55;2.17;;;18.60;99.90;;;;;;5054253;28;20104;-66
2023/08/04 08:30:48;;;;;;;5.32;2.40;;;18.60;99.90;;;;;;5053797;28;20052;-66
2023/08/04 08:33:13;;;;;;;5.35;2.00;;;18.60;99.90;;;;;;5054048;28;20036;-66
2023/08/04 08:35:39;;;;;;;4.45;2.20;;;18.70;99.90;;;;;;5054237;28;20025;-67
2023/08/04 08:38:05;;;;;;;6.78;1.92;;;18.70;99.90;;;;;;5054172;28;20021;-66
2023/08/04 08:40:30;;;;;;;3.08;1.88;;;18.70;99.90;;;;;;5053832;28;20025;-66
2023/08/04 08:42:57;;;;;;;4.75;1.75;;;18.80;99.90;;;;;;5066269;28;21119;-65
2023/08/04 08:45:27;;;;;;;4.60;1.58;;;18.80;99.90;;;;;;5070168;28;20107;-66
2023/08/04 08:47:54;;;;;;;4.65;1.60;;;18.80;99.90;;;;;;5073247;28;20064;-65
2023/08/04 08:50:23;;;;;;;4.25;1.52;;;18.90;99.90;;;;;;5073039;28;20043;-65
2023/08/04 08:53:08;;;;;;;4.30;1.35;;;18.90;99.90;;;;;;5072465;28;20025;-66
2023/08/04 08:55:34;;;;;;;5.95;1.83;;;19.00;99.90;;;;;;5072262;28;20082;-65
2023/08/04 08:58:00;;;;;;;4.95;1.90;;;19.00;99.90;;;;;;5071026;28;20384;-65
2023/08/04 09:00:28;;;;;;;2.45;1.20;;;19.00;99.90;;;;;;5085464;28;20035;-64
2023/08/04 09:02:54;;;;;;;3.65;1.75;;;19.00;99.90;;;;;;5070858;28;20024;-65
2023/08/04 09:05:21;;;;;;;5.18;2.00;;;19.10;99.90;;;;;;5072701;28;20111;-64
2023/08/04 09:07:48;;;;;;;2.70;1.58;;;19.10;99.90;;;;;;5073018;28;20013;-65
2023/08/04 09:10:14;;;;;;;3.65;1.42;;;19.10;99.90;;;;;;5071599;28;20012;-65
2023/08/04 09:12:39;;;;;;;4.82;1.23;;;19.20;99.90;;;;;;5071153;28;20406;-65
2023/08/04 09:15:05;;;;;;;5.57;1.60;;;19.20;99.90;;;;;;5071285;28;20016;-65
2023/08/04 09:17:32;;;;;;;3.60;1.38;;;19.20;99.90;;;;;;5072135;28;20037;-66
2023/08/04 09:20:00;;;;;;;2.88;1.42;;;19.30;99.90;;;;;;5072473;28;20378;-65
2023/08/04 09:22:26;;;;;;;5.40;1.30;;;19.30;99.90;;;;;;5072997;28;20397;-65
2023/08/04 09:25:03;;;;;;;3.63;0.98;;;19.30;99.90;;;;;;5073241;28;20016;-65
2023/08/04 09:27:34;;;;;;;3.60;1.48;;;19.40;99.90;;;;;;5073102;28;20024;-65
2023/08/04 09:30:02;;;;;;;3.20;1.50;;;19.40;99.90;;;;;;5073088;28;20051;-66
2023/08/04 09:32:28;;;;;;;3.58;1.52;;;19.40;99.90;;;;;;5070379;28;20114;-65
2023/08/04 09:35:01;;;;;;;3.15;1.05;;;19.50;99.90;;;;;;5072815;28;20477;-66
2023/08/04 09:37:27;;;;;;;5.25;1.50;;;19.40;99.90;;;;;;5072180;28;20020;-66
2023/08/04 09:39:53;;;;;;;4.32;1.38;;;19.50;99.90;;;;;;5072489;28;20062;-64
2023/08/04 09:42:21;;;;;;;3.20;1.15;;;19.50;99.90;;;;;;5071905;28;20032;-64
2023/08/04 09:44:52;;;;;;;3.38;1.17;;;19.50;99.90;;;;;;5071213;28;20059;-65
2023/08/04 09:47:20;;;;;;;4.05;1.50;;;19.60;99.90;;;;;;5052919;28;20108;-65
2023/08/04 09:49:45;;;;;;;3.92;1.13;;;19.60;99.90;;;;;;5054932;28;20085;-65
2023/08/04 09:52:17;;;;;;;3.35;1.23;;;19.60;99.90;;;;;;5061034;28;20029;-65
2023/08/04 09:54:43;;;;;;;2.95;1.52;;;19.60;99.90;;;;;;5052974;28;20028;-64
2023/08/04 09:57:09;;;;;;;2.78;1.23;;;19.70;99.90;;;;;;5052626;28;20083;-65
2023/08/04 09:59:36;;;;;;;2.58;1.27;;;19.70;99.90;;;;;;5052570;28;20115;-65
2023/08/04 10:02:02;;;;;;;3.80;1.50;;;19.70;99.90;;;;;;5052943;28;20020;-65
2023/08/04 10:04:27;;;;;;;3.22;1.30;;;19.70;99.90;;;;;;5052765;28;20112;-65
2023/08/04 10:06:54;;;;;;;3.38;1.13;;;19.70;99.90;;;;;;5052978;28;20083;-65
2023/08/04 10:09:21;;;;;;;2.40;0.70;;;19.80;99.90;;;;;;5052714;28;20021;-65
2023/08/04 10:11:47;;;;;;;1.88;1.05;;;19.80;99.90;;;;;;5051711;28;20474;-65
2023/08/04 10:14:13;;;;;;;3.42;1.13;;;19.80;99.90;;;;;;5052372;28;20087;-65
2023/08/04 10:16:39;;;;;;;3.17;1.20;;;19.80;99.90;;;;;;5052874;28;20017;-65
2023/08/04 10:19:09;;;;;;;3.88;0.90;;;19.90;99.90;;;;;;5052519;28;20025;-64
2023/08/04 10:21:40;;;;;;;2.22;0.98;;;19.90;99.90;;;;;;5052716;28;20358;-63
2023/08/04 10:24:08;;;;;;;2.90;0.68;;;19.90;99.90;;;;;;5052532;28;20032;-64
2023/08/04 10:26:43;;;;;;;3.13;0.73;;;19.90;99.90;;;;;;5052578;28;20106;-66
2023/08/04 10:29:09;;;;;;;4.32;1.13;;;20.00;99.90;;;;;;5054920;28;20090;-65
2023/08/04 10:31:47;;;;;;;3.28;0.73;;;20.00;99.90;;;;;;5056503;28;20055;-64
2023/08/04 10:34:31;;;;;;;2.50;0.98;;;20.00;99.90;;;;;;5056495;28;20040;-65
2023/08/04 10:37:14;;;;;;;2.65;0.80;;;20.00;99.90;;;;;;5056620;28;20044;-64
2023/08/04 10:39:57;;;;;;;3.50;1.00;;;20.00;99.90;;;;;;5056437;28;20025;-64
2023/08/04 10:42:24;;;;;;;2.85;0.77;;;20.00;99.90;;;;;;5056218;28;20029;-64
2023/08/04 10:45:07;;;;;;;1.85;0.77;;;20.10;99.90;;;;;;5056097;28;20466;-64
2023/08/04 10:47:43;;;;;;;3.25;1.10;;;20.10;99.90;;;;;;5056225;28;20504;-64
2023/08/04 10:50:09;;;;;;;1.02;0.60;;;20.10;99.90;;;;;;5056019;28;20044;-64
2023/08/04 10:52:36;;;;;;;3.03;0.98;;;20.10;99.90;;;;;;5056176;28;20028;-64
2023/08/04 10:55:04;;;;;;;3.20;0.90;;;20.20;99.90;;;;;;5056109;28;20481;-64
2023/08/04 10:57:34;;;;;;;2.70;1.00;;;20.20;99.90;;;;;;5055845;28;20079;-64
2023/08/04 11:00:00;;;;;;;2.65;0.70;;;20.20;99.90;;;;;;5056015;28;20394;-63
2023/08/04 11:02:27;;;;;;;3.67;0.82;;;20.20;99.90;;;;;;5056114;28;20028;-63
2023/08/04 11:04:54;;;;;;;2.00;0.68;;;20.20;99.90;;;;;;5056039;28;20044;-63
2023/08/04 11:07:21;;;;;;;2.00;0.80;;;20.20;99.90;;;;;;5056030;28;20021;-65
2023/08/04 11:09:49;;;;;;;3.38;1.00;;;20.20;99.90;;;;;;5055670;28;20043;-64
2023/08/04 11:12:15;;;;;;;2.75;0.88;;;20.30;99.90;;;;;;5055649;28;20025;-64
2023/08/04 11:14:41;;;;;;;2.60;0.85;;;20.30;99.90;;;;;;5055773;28;20064;-63
2023/08/04 11:17:18;;;;;;;2.25;0.93;;;20.30;99.90;;;;;;5055679;28;20078;-63
2023/08/04 11:19:45;;;;;;;5.57;1.00;;;20.30;99.90;;;;;;5061679;28;20496;-63
2023/08/04 11:22:21;;;;;;;1.30;0.60;;;20.40;99.90;;;;;;5074936;28;20035;-63
2023/08/04 11:24:50;;;;;;;4.38;0.70;;;20.40;99.90;;;;;;5074500;28;20358;-63
2023/08/04 11:27:16;;;;;;;3.55;1.27;;;20.40;99.90;;;;;;5074218;28;20024;-63
2023/08/04 11:29:42;;;;;;;3.17;1.05;;;20.40;99.90;;;;;;5073381;28;20029;-64
2023/08/04 11:32:20;;;;;;;3.05;0.90;;;20.40;99.90;;;;;;5069720;28;20025;-63
2023/08/04 11:34:46;;;;;;;2.25;0.90;;;20.40;99.90;;;;;;5054239;28;20021;-65
2023/08/04 11:37:12;;;;;;;2.30;0.60;;;20.40;99.90;;;;;;5054348;28;20453;-63
2023/08/04 11:39:40;;;;;;;4.18;0.75;;;20.50;99.90;;;;;;5053215;28;20530;-63
2023/08/04 11:42:15;;;;;;;3.70;0.68;;;20.50;99.90;;;;;;5054481;28;20048;-62
2023/08/04 11:44:44;;;;;;;2.65;0.68;;;20.50;99.90;;;;;;5054457;28;20040;-63
2023/08/04 11:47:11;;;;;;;3.28;0.63;;;20.60;99.90;;;;;;5053867;28;20067;-63
2023/08/04 11:49:38;;;;;;;1.75;0.50;;;20.60;99.90;;;;;;5068912;28;20405;-63
2023/08/04 11:52:14;;;;;;;3.55;1.20;;;20.60;99.90;;;;;;5070696;28;20111;-62
2023/08/04 11:54:59;;;;;;;2.22;0.98;;;20.60;99.90;;;;;;5054011;28;20386;-63
2023/08/04 11:57:25;;;;;;;1.15;0.45;;;20.60;99.90;;;;;;5052514;28;20397;-62
2023/08/04 11:59:52;;;;;;;3.65;1.00;;;20.60;99.90;;;;;;5053415;28;20033;-62
2023/08/04 12:02:18;;;;;;;2.75;0.75;;;20.70;99.90;;;;;;5054069;28;20028;-64
2023/08/04 12:04:44;;;;;;;2.60;0.80;;;20.70;99.90;;;;;;5054119;28;20021;-64
2023/08/04 12:07:10;;;;;;;2.97;0.80;;;20.70;99.90;;;;;;5054135;28;20017;-62
2023/08/04 12:09:36;;;;;;;2.40;0.77;;;20.70;99.90;;;;;;5056167;28;20067;-63
2023/08/04 12:12:05;;;;;;;2.67;0.73;;;20.70;99.90;;;;;;5061183;28;20103;-63
2023/08/04 12:14:31;;;;;;;2.08;1.17;;;20.80;99.90;;;;;;5073708;28;20036;-63
2023/08/04 12:16:58;;;;;;;2.15;0.82;;;20.70;99.90;;;;;;5073644;28;20059;-63
2023/08/04 12:19:26;;;;;;;3.42;1.15;;;20.80;99.90;;;;;;5068251;28;20037;-62
2023/08/04 12:21:53;;;;;;;2.60;0.82;;;20.80;99.90;;;;;;5067756;28;20029;-63
2023/08/04 12:24:20;;;;;;;3.22;1.10;;;20.80;99.90;;;;;;5060776;28;20066;-63
2023/08/04 12:26:46;;;;;;;1.77;0.88;;;20.80;99.90;;;;;;5073698;28;20397;-62
2023/08/04 12:29:12;;;;;;;2.50;1.08;;;20.80;99.90;;;;;;5072918;28;20469;-63
2023/08/04 12:31:38;;;;;;;5.38;1.58;;;20.90;99.90;;;;;;5073142;28;20040;-63
2023/08/04 12:34:05;;;;;;;2.85;0.90;;;20.90;99.90;;;;;;5069778;28;20014;-65
2023/08/04 12:36:30;;;;;;;2.03;0.80;;;20.90;99.90;;;;;;5053530;28;20029;-64
2023/08/04 12:38:56;;;;;;;5.18;0.98;;;20.90;99.90;;;;;;5054050;28;20527;-64
2023/08/04 12:41:22;;;;;;;1.77;0.80;;;21.00;99.90;;;;;;5060208;28;20028;-64